createdAt,value
2023-04-30T00:00:20.500Z,25.00
2023-04-30T00:01:20.479Z,25.00
2023-04-30T00:02:20.601Z,25.00
2023-04-30T00:03:20.533Z,0.00
2023-04-30T00:04:20.602Z,0.00
2023-04-30T00:05:20.463Z,0.00
2023-04-30T00:06:20.445Z,0.00
2023-04-30T00:07:20.410Z,0.00
2023-04-30T00:08:20.389Z,0.32
2023-04-30T00:09:20.385Z,17.54
2023-04-30T00:10:20.375Z,25.00
2023-04-30T00:11:20.361Z,25.00
2023-04-30T00:12:20.346Z,25.00
2023-04-30T00:13:20.420Z,25.00
2023-04-30T00:14:20.470Z,25.00
2023-04-30T00:15:20.466Z,25.58
2023-04-30T00:16:20.586Z,25.00
2023-04-30T00:17:20.550Z,26.48
2023-04-30T00:18:20.597Z,25.00
2023-04-30T00:19:20.653Z,25.00
2023-04-30T00:20:20.701Z,25.00
2023-04-30T00:21:20.746Z,25.32
2023-04-30T00:22:20.773Z,25.00
2023-04-30T00:23:20.803Z,25.91
2023-04-30T00:24:20.862Z,25.07
2023-04-30T00:25:20.953Z,25.00
2023-04-30T00:26:20.955Z,25.50
2023-04-30T00:27:21.006Z,26.63
2023-04-30T00:28:21.040Z,25.65
2023-04-30T00:29:21.128Z,25.75
2023-04-30T00:30:21.159Z,25.60
2023-04-30T00:31:21.267Z,25.42
2023-04-30T00:32:21.518Z,27.16
2023-04-30T00:33:21.290Z,25.33
2023-04-30T00:34:21.342Z,27.04
2023-04-30T00:35:21.374Z,26.58
2023-04-30T00:36:21.437Z,26.78
2023-04-30T00:37:21.491Z,27.13
2023-04-30T00:38:21.522Z,26.25
2023-04-30T00:39:21.571Z,27.70
2023-04-30T00:40:21.624Z,27.26
2023-04-30T00:41:21.669Z,27.63
2023-04-30T00:42:21.717Z,27.84
2023-04-30T00:43:21.763Z,27.74
2023-04-30T00:44:21.811Z,26.49
2023-04-30T00:45:21.905Z,26.67
2023-04-30T00:46:21.979Z,29.94
2023-04-30T00:47:21.978Z,25.68
2023-04-30T00:48:21.997Z,26.32
2023-04-30T00:49:22.037Z,25.88
2023-04-30T00:50:22.089Z,25.51
2023-04-30T00:51:22.126Z,26.16
2023-04-30T00:52:22.197Z,28.44
2023-04-30T00:53:22.241Z,27.16
2023-04-30T00:54:22.295Z,25.00
2023-04-30T00:55:22.340Z,26.80
2023-04-30T00:56:22.373Z,26.10
2023-04-30T00:57:22.430Z,27.10
2023-04-30T00:58:22.467Z,25.92
2023-04-30T00:59:22.526Z,25.36
2023-04-30T01:00:22.568Z,25.42
2023-04-30T01:01:22.717Z,27.20
2023-04-30T01:02:22.745Z,25.50
2023-04-30T01:03:22.808Z,25.79
2023-04-30T01:04:22.760Z,27.91
2023-04-30T01:05:22.821Z,26.32
2023-04-30T01:06:22.924Z,29.46
2023-04-30T01:07:22.944Z,26.93
2023-04-30T01:08:22.960Z,27.26
2023-04-30T01:09:23.000Z,27.40
2023-04-30T01:10:23.040Z,25.63
2023-04-30T01:11:23.095Z,27.15
2023-04-30T01:12:23.155Z,26.46
2023-04-30T01:13:23.195Z,27.65
2023-04-30T01:14:23.246Z,27.32
2023-04-30T01:15:23.281Z,26.05
2023-04-30T01:16:23.440Z,26.87
2023-04-30T01:17:23.845Z,25.00
2023-04-30T01:18:23.503Z,27.74
2023-04-30T01:19:23.457Z,28.18
2023-04-30T01:20:23.516Z,29.62
2023-04-30T01:21:23.548Z,25.76
2023-04-30T01:22:23.599Z,26.02
2023-04-30T01:23:23.654Z,25.00
2023-04-30T01:24:23.699Z,28.61
2023-04-30T01:25:23.750Z,28.77
2023-04-30T01:26:23.789Z,27.14
2023-04-30T01:27:23.884Z,26.14
2023-04-30T01:28:23.892Z,27.41
2023-04-30T01:29:24.321Z,25.81
2023-04-30T01:30:24.317Z,27.52
2023-04-30T01:31:24.424Z,26.73
2023-04-30T01:32:24.382Z,26.93
2023-04-30T01:33:24.352Z,28.16
2023-04-30T01:34:24.324Z,27.36
2023-04-30T01:35:24.324Z,29.05
2023-04-30T01:36:24.319Z,28.01
2023-04-30T01:37:24.329Z,26.71
2023-04-30T01:38:24.392Z,27.22
2023-04-30T01:39:24.441Z,25.43
2023-04-30T01:40:24.505Z,25.73
2023-04-30T01:41:24.547Z,26.75
2023-04-30T01:42:24.614Z,25.78
2023-04-30T01:43:24.656Z,27.49
2023-04-30T01:44:24.710Z,27.31
2023-04-30T01:45:24.757Z,27.57
2023-04-30T01:46:24.818Z,25.00
2023-04-30T01:47:24.933Z,27.82
2023-04-30T01:48:24.902Z,29.39
2023-04-30T01:49:25.363Z,27.94
2023-04-30T01:50:25.332Z,27.77
2023-04-30T01:51:25.341Z,31.24
2023-04-30T01:52:25.340Z,27.49
2023-04-30T01:53:25.354Z,28.34
2023-04-30T01:54:25.360Z,27.27
2023-04-30T01:55:25.352Z,26.64
2023-04-30T01:56:25.333Z,26.49
2023-04-30T01:57:25.345Z,28.94
2023-04-30T01:58:25.396Z,27.86
2023-04-30T01:59:25.445Z,30.02
2023-04-30T02:00:25.491Z,29.91
2023-04-30T02:01:25.569Z,28.49
2023-04-30T02:02:25.749Z,27.69
2023-04-30T02:03:25.729Z,27.70
2023-04-30T02:04:25.713Z,29.78
2023-04-30T02:05:25.775Z,28.59
2023-04-30T02:06:25.849Z,28.39
2023-04-30T02:07:25.848Z,28.44
2023-04-30T02:08:25.917Z,27.41
2023-04-30T02:09:25.969Z,28.95
2023-04-30T02:10:26.006Z,29.46
2023-04-30T02:11:26.090Z,27.93
2023-04-30T02:12:26.122Z,27.41
2023-04-30T02:13:26.180Z,29.28
2023-04-30T02:14:26.240Z,26.49
2023-04-30T02:15:26.291Z,26.77
2023-04-30T02:16:26.426Z,27.01
2023-04-30T02:17:26.387Z,26.46
2023-04-30T02:18:26.443Z,26.52
2023-04-30T02:19:26.501Z,26.97
2023-04-30T02:20:26.559Z,26.16
2023-04-30T02:21:26.623Z,28.85
2023-04-30T02:22:26.664Z,27.61
2023-04-30T02:23:26.711Z,29.25
2023-04-30T02:24:26.757Z,29.88
2023-04-30T02:25:26.806Z,25.98
2023-04-30T02:26:26.852Z,27.94
2023-04-30T02:27:26.911Z,27.22
2023-04-30T02:28:26.941Z,25.21
2023-04-30T02:29:26.986Z,27.10
2023-04-30T02:30:27.040Z,27.52
2023-04-30T02:31:27.120Z,27.19
2023-04-30T02:32:27.157Z,27.57
2023-04-30T02:33:27.198Z,25.56
2023-04-30T02:34:27.266Z,26.71
2023-04-30T02:35:27.311Z,26.31
2023-04-30T02:36:27.383Z,26.47
2023-04-30T02:37:27.430Z,26.14
2023-04-30T02:38:27.452Z,26.65
2023-04-30T02:39:27.509Z,29.06
2023-04-30T02:40:27.552Z,28.25
2023-04-30T02:41:27.600Z,27.12
2023-04-30T02:42:27.630Z,29.73
2023-04-30T02:43:27.691Z,29.67
2023-04-30T02:44:27.760Z,27.83
2023-04-30T02:45:27.821Z,26.66
2023-04-30T02:46:27.842Z,28.25
2023-04-30T02:47:27.894Z,27.55
2023-04-30T02:48:27.953Z,29.99
2023-04-30T02:49:27.982Z,27.11
2023-04-30T02:50:28.044Z,31.22
2023-04-30T02:51:28.109Z,29.77
2023-04-30T02:52:28.161Z,27.47
2023-04-30T02:53:28.229Z,28.94
2023-04-30T02:54:28.290Z,29.77
2023-04-30T02:55:28.301Z,27.90
2023-04-30T02:56:28.359Z,28.59
2023-04-30T02:57:28.405Z,30.54
2023-04-30T02:58:28.451Z,28.07
2023-04-30T02:59:28.544Z,29.84
2023-04-30T03:00:28.556Z,30.07
2023-04-30T03:01:28.688Z,31.01
2023-04-30T03:02:28.732Z,27.10
2023-04-30T03:03:28.757Z,28.98
2023-04-30T03:04:28.777Z,29.11
2023-04-30T03:05:28.836Z,28.33
2023-04-30T03:06:28.884Z,28.37
2023-04-30T03:07:28.923Z,26.76
2023-04-30T03:08:28.985Z,28.71
2023-04-30T03:09:29.062Z,27.68
2023-04-30T03:10:29.091Z,30.06
2023-04-30T03:11:29.145Z,29.32
2023-04-30T03:12:29.200Z,29.41
2023-04-30T03:13:29.244Z,26.99
2023-04-30T03:14:29.305Z,29.25
2023-04-30T03:15:29.344Z,30.47
2023-04-30T03:16:29.432Z,29.39
2023-04-30T03:17:29.465Z,26.09
2023-04-30T03:18:29.491Z,25.82
2023-04-30T03:19:29.538Z,28.34
2023-04-30T03:20:29.579Z,29.59
2023-04-30T03:21:29.625Z,29.46
2023-04-30T03:22:29.687Z,28.99
2023-04-30T03:23:29.725Z,27.24
2023-04-30T03:24:29.792Z,29.02
2023-04-30T03:25:29.862Z,27.34
2023-04-30T03:26:29.890Z,26.67
2023-04-30T03:27:29.935Z,28.65
2023-04-30T03:28:29.971Z,28.72
2023-04-30T03:29:30.388Z,27.84
2023-04-30T03:30:30.393Z,26.37
2023-04-30T03:31:30.412Z,29.17
2023-04-30T03:32:30.449Z,27.37
2023-04-30T03:33:30.430Z,27.11
2023-04-30T03:34:30.392Z,27.69
2023-04-30T03:35:30.394Z,26.86
2023-04-30T03:36:30.407Z,30.45
2023-04-30T03:37:30.402Z,27.37
2023-04-30T03:38:30.425Z,28.14
2023-04-30T03:39:30.472Z,29.67
2023-04-30T03:40:30.514Z,27.69
2023-04-30T03:41:30.591Z,26.87
2023-04-30T03:42:30.622Z,28.77
2023-04-30T03:43:30.662Z,27.84
2023-04-30T03:44:30.716Z,27.83
2023-04-30T03:45:30.753Z,29.18
2023-04-30T03:46:30.915Z,29.10
2023-04-30T03:47:30.941Z,26.84
2023-04-30T03:48:30.935Z,28.20
2023-04-30T03:49:30.964Z,28.20
2023-04-30T03:50:31.398Z,28.11
2023-04-30T03:51:31.419Z,29.57
2023-04-30T03:52:31.436Z,25.33
2023-04-30T03:53:31.419Z,30.11
2023-04-30T03:54:31.414Z,29.08
2023-04-30T03:55:31.409Z,30.06
2023-04-30T03:56:31.412Z,28.56
2023-04-30T03:57:31.435Z,28.57
2023-04-30T03:58:31.420Z,27.21
2023-04-30T03:59:31.410Z,29.09
2023-04-30T04:00:31.453Z,28.32
2023-04-30T04:01:31.547Z,29.03
2023-04-30T04:02:31.622Z,28.59
2023-04-30T04:03:31.584Z,29.55
2023-04-30T04:04:31.683Z,27.85
2023-04-30T04:05:31.652Z,29.58
2023-04-30T04:06:31.868Z,26.71
2023-04-30T04:07:31.761Z,29.57
2023-04-30T04:08:31.820Z,29.54
2023-04-30T04:09:31.895Z,27.46
2023-04-30T04:10:31.932Z,28.80
2023-04-30T04:11:32.006Z,26.84
2023-04-30T04:12:32.051Z,28.40
2023-04-30T04:13:32.130Z,28.55
2023-04-30T04:14:32.162Z,27.66
2023-04-30T04:15:32.220Z,29.29
2023-04-30T04:16:32.388Z,28.15
2023-04-30T04:17:32.441Z,29.79
2023-04-30T04:18:32.351Z,27.73
2023-04-30T04:19:32.419Z,28.19
2023-04-30T04:20:32.463Z,28.83
2023-04-30T04:21:32.524Z,28.99
2023-04-30T04:22:32.571Z,28.74
2023-04-30T04:23:32.583Z,28.77
2023-04-30T04:24:32.657Z,28.25
2023-04-30T04:25:32.685Z,27.13
2023-04-30T04:26:32.759Z,27.62
2023-04-30T04:27:32.798Z,28.78
2023-04-30T04:28:32.877Z,28.10
2023-04-30T04:29:32.924Z,27.26
2023-04-30T04:30:32.943Z,26.49
2023-04-30T04:31:33.019Z,28.05
2023-04-30T04:32:33.100Z,27.79
2023-04-30T04:33:33.107Z,26.74
2023-04-30T04:34:33.140Z,28.06
2023-04-30T04:35:33.188Z,27.75
2023-04-30T04:36:33.230Z,27.35
2023-04-30T04:37:33.266Z,26.70
2023-04-30T04:38:33.300Z,26.26
2023-04-30T04:39:33.343Z,26.11
2023-04-30T04:40:33.373Z,27.16
2023-04-30T04:41:33.405Z,28.83
2023-04-30T04:42:33.437Z,30.30
2023-04-30T04:43:33.473Z,29.39
2023-04-30T04:44:33.523Z,26.93
2023-04-30T04:45:33.573Z,29.91
2023-04-30T04:46:33.632Z,28.21
2023-04-30T04:47:33.693Z,28.31
2023-04-30T04:48:33.651Z,26.56
2023-04-30T04:49:33.687Z,28.46
2023-04-30T04:50:33.708Z,28.80
2023-04-30T04:51:33.752Z,28.51
2023-04-30T04:52:33.779Z,27.92
2023-04-30T04:53:34.950Z,26.75
2023-04-30T04:54:33.860Z,30.60
2023-04-30T04:55:33.896Z,28.81
2023-04-30T04:56:33.927Z,29.30
2023-04-30T04:57:33.972Z,27.96
2023-04-30T04:58:34.002Z,26.90
2023-04-30T04:59:34.031Z,27.66
2023-04-30T05:00:34.069Z,27.26
2023-04-30T05:01:34.186Z,29.53
2023-04-30T05:02:34.186Z,28.56
2023-04-30T05:03:34.248Z,30.14
2023-04-30T05:04:34.194Z,28.48
2023-04-30T05:05:34.260Z,28.79
2023-04-30T05:06:34.347Z,28.07
2023-04-30T05:07:34.370Z,29.10
2023-04-30T05:08:34.418Z,28.35
2023-04-30T05:09:34.459Z,28.25
2023-04-30T05:10:34.484Z,27.03
2023-04-30T05:11:34.519Z,28.43
2023-04-30T05:12:34.556Z,27.67
2023-04-30T05:13:34.598Z,27.03
2023-04-30T05:14:34.639Z,28.14
2023-04-30T05:15:34.677Z,27.89
2023-04-30T05:16:34.776Z,27.40
2023-04-30T05:17:34.828Z,27.15
2023-04-30T05:18:34.776Z,29.45
2023-04-30T05:19:34.832Z,28.95
2023-04-30T05:20:34.853Z,27.11
2023-04-30T05:21:34.901Z,28.54
2023-04-30T05:22:34.938Z,29.24
2023-04-30T05:23:34.971Z,28.77
2023-04-30T05:24:35.014Z,28.34
2023-04-30T05:25:35.059Z,28.33
2023-04-30T05:26:35.106Z,26.33
2023-04-30T05:27:35.136Z,26.84
2023-04-30T05:28:35.188Z,26.36
2023-04-30T05:29:35.274Z,28.15
2023-04-30T05:30:35.266Z,27.06
2023-04-30T05:31:35.312Z,28.85
2023-04-30T05:32:35.344Z,28.42
2023-04-30T05:33:35.387Z,27.23
2023-04-30T05:34:35.403Z,30.14
2023-04-30T05:35:35.436Z,26.47
2023-04-30T05:36:35.453Z,31.07
2023-04-30T05:37:35.519Z,26.22
2023-04-30T05:38:35.546Z,25.78
2023-04-30T05:39:35.581Z,29.84
2023-04-30T05:40:35.630Z,29.31
2023-04-30T05:41:35.676Z,30.42
2023-04-30T05:42:35.709Z,29.05
2023-04-30T05:43:35.735Z,26.94
2023-04-30T05:44:35.786Z,26.86
2023-04-30T05:45:35.855Z,29.08
2023-04-30T05:46:35.856Z,28.19
2023-04-30T05:47:35.945Z,29.65
2023-04-30T05:48:35.957Z,27.97
2023-04-30T05:49:36.419Z,26.55
2023-04-30T05:50:36.055Z,29.23
2023-04-30T05:51:36.481Z,29.02
2023-04-30T05:52:36.472Z,27.61
2023-04-30T05:53:36.473Z,25.70
2023-04-30T05:54:36.514Z,29.97
2023-04-30T05:55:36.489Z,28.55
2023-04-30T05:56:36.490Z,26.73
2023-04-30T05:57:36.483Z,28.71
2023-04-30T05:58:36.477Z,28.77
2023-04-30T05:59:36.477Z,28.90
2023-04-30T06:00:36.484Z,27.51
2023-04-30T06:01:36.513Z,28.08
2023-04-30T06:02:36.658Z,29.33
2023-04-30T06:03:36.540Z,28.65
2023-04-30T06:04:36.591Z,29.01
2023-04-30T06:05:36.843Z,28.79
2023-04-30T06:06:36.769Z,27.99
2023-04-30T06:07:36.718Z,27.43
2023-04-30T06:08:36.734Z,27.94
2023-04-30T06:09:36.781Z,27.92
2023-04-30T06:10:36.818Z,30.40
2023-04-30T06:11:36.850Z,27.59
2023-04-30T06:12:36.895Z,30.82
2023-04-30T06:13:36.936Z,28.79
2023-04-30T06:14:36.981Z,27.37
2023-04-30T06:15:37.006Z,26.68
2023-04-30T06:16:37.154Z,27.58
2023-04-30T06:17:37.147Z,28.27
2023-04-30T06:18:37.486Z,28.82
2023-04-30T06:19:37.490Z,29.70
2023-04-30T06:20:36.492Z,27.67
2023-04-30T06:21:37.530Z,28.56
2023-04-30T06:22:37.509Z,26.16
2023-04-30T06:23:37.494Z,28.35
2023-04-30T06:24:37.504Z,28.78
2023-04-30T06:25:37.526Z,26.23
2023-04-30T06:26:38.971Z,28.89
2023-04-30T06:27:37.492Z,27.62
2023-04-30T06:28:37.504Z,34.10
2023-04-30T06:29:37.536Z,29.45
2023-04-30T06:30:37.523Z,28.40
2023-04-30T06:31:37.546Z,28.66
2023-04-30T06:32:37.563Z,28.98
2023-04-30T06:33:37.509Z,27.17
2023-04-30T06:34:37.501Z,27.86
2023-04-30T06:35:37.506Z,27.53
2023-04-30T06:36:37.506Z,27.83
2023-04-30T06:37:37.547Z,29.86
2023-04-30T06:38:37.522Z,27.77
2023-04-30T06:39:37.496Z,27.77
2023-04-30T06:40:37.500Z,29.93
2023-04-30T06:41:37.511Z,28.06
2023-04-30T06:42:37.516Z,26.98
2023-04-30T06:43:37.505Z,26.34
2023-04-30T06:44:37.509Z,27.22
2023-04-30T06:45:37.506Z,26.94
2023-04-30T06:46:37.590Z,29.29
2023-04-30T06:47:37.521Z,25.99
2023-04-30T06:48:37.505Z,27.07
2023-04-30T06:49:37.512Z,27.83
2023-04-30T06:50:37.510Z,27.45
2023-04-30T06:51:37.510Z,26.52
2023-04-30T06:52:37.511Z,28.85
2023-04-30T06:53:37.561Z,26.79
2023-04-30T06:54:37.517Z,28.10
2023-04-30T06:55:37.513Z,28.06
2023-04-30T06:56:37.513Z,28.36
2023-04-30T06:57:37.591Z,27.03
2023-04-30T06:58:37.535Z,29.60
2023-04-30T06:59:37.564Z,26.34
2023-04-30T07:00:37.610Z,28.36
2023-04-30T07:01:37.717Z,27.72
2023-04-30T07:02:37.779Z,29.45
2023-04-30T07:03:37.888Z,29.60
2023-04-30T07:04:37.816Z,28.47
2023-04-30T07:05:37.881Z,28.62
2023-04-30T07:06:38.109Z,27.97
2023-04-30T07:07:37.972Z,28.53
2023-04-30T07:08:38.025Z,28.06
2023-04-30T07:09:38.110Z,27.15
2023-04-30T07:10:38.144Z,29.15
2023-04-30T07:11:38.193Z,27.02
2023-04-30T07:12:38.251Z,28.61
2023-04-30T07:13:38.315Z,30.12
2023-04-30T07:14:38.372Z,32.41
2023-04-30T07:15:38.444Z,28.48
2023-04-30T07:16:38.463Z,28.97
2023-04-30T07:17:38.571Z,27.79
2023-04-30T07:18:38.572Z,29.38
2023-04-30T07:19:38.620Z,29.08
2023-04-30T07:20:38.669Z,30.37
2023-04-30T07:21:38.738Z,29.38
2023-04-30T07:22:38.784Z,29.91
2023-04-30T07:23:38.845Z,30.65
2023-04-30T07:24:38.904Z,27.81
2023-04-30T07:25:38.961Z,29.15
2023-04-30T07:26:38.976Z,28.30
2023-04-30T07:27:39.027Z,29.78
2023-04-30T07:28:39.081Z,27.72
2023-04-30T07:29:39.162Z,29.78
2023-04-30T07:30:39.198Z,31.44
2023-04-30T07:31:39.325Z,29.15
2023-04-30T07:32:39.332Z,28.14
2023-04-30T07:33:39.354Z,28.39
2023-04-30T07:34:39.404Z,31.63
2023-04-30T07:35:39.455Z,28.47
2023-04-30T07:36:39.530Z,29.47
2023-04-30T07:37:41.130Z,28.48
2023-04-30T07:38:39.551Z,28.82
2023-04-30T07:39:39.567Z,29.97
2023-04-30T07:40:39.540Z,30.39
2023-04-30T07:41:39.537Z,29.05
2023-04-30T07:42:39.505Z,29.11
2023-04-30T07:43:39.502Z,28.75
2023-04-30T07:44:39.471Z,27.77
2023-04-30T07:45:39.529Z,31.15
2023-04-30T07:46:39.598Z,30.37
2023-04-30T07:47:39.474Z,29.08
2023-04-30T07:48:39.443Z,31.48
2023-04-30T07:49:39.470Z,29.01
2023-04-30T07:50:39.437Z,27.24
2023-04-30T07:51:39.429Z,29.32
2023-04-30T07:52:39.416Z,28.07
2023-04-30T07:53:39.414Z,27.20
2023-04-30T07:54:39.450Z,27.51
2023-04-30T07:55:39.399Z,28.53
2023-04-30T07:56:39.396Z,28.60
2023-04-30T07:57:39.449Z,28.70
2023-04-30T07:58:39.361Z,29.28
2023-04-30T07:59:39.352Z,29.61
2023-04-30T08:00:39.351Z,29.56
2023-04-30T08:01:39.391Z,28.96
2023-04-30T08:02:39.406Z,27.37
2023-04-30T08:03:39.470Z,29.72
2023-04-30T08:04:39.381Z,27.17
2023-04-30T08:05:39.368Z,28.63
2023-04-30T08:06:39.465Z,27.97
2023-04-30T08:07:39.445Z,27.12
2023-04-30T08:08:39.509Z,27.99
2023-04-30T08:09:39.566Z,30.32
2023-04-30T08:10:39.591Z,26.97
2023-04-30T08:11:39.822Z,25.95
2023-04-30T08:12:39.699Z,27.87
2023-04-30T08:13:39.772Z,28.26
2023-04-30T08:14:39.803Z,27.78
2023-04-30T08:15:39.848Z,28.25
2023-04-30T08:16:39.927Z,29.95
2023-04-30T08:17:39.997Z,29.37
2023-04-30T08:18:39.991Z,28.24
2023-04-30T08:19:40.090Z,25.83
2023-04-30T08:20:40.074Z,28.49
2023-04-30T08:21:40.129Z,27.92
2023-04-30T08:22:40.234Z,29.01
2023-04-30T08:23:40.210Z,26.71
2023-04-30T08:24:40.255Z,27.45
2023-04-30T08:25:40.317Z,28.51
2023-04-30T08:26:40.374Z,25.00
2023-04-30T08:27:40.421Z,27.14
2023-04-30T08:28:40.443Z,28.22
2023-04-30T08:29:40.507Z,28.31
2023-04-30T08:30:40.510Z,27.44
2023-04-30T08:31:40.595Z,28.97
2023-04-30T08:32:40.722Z,26.82
2023-04-30T08:33:40.633Z,26.69
2023-04-30T08:34:40.677Z,28.67
2023-04-30T08:35:40.708Z,28.22
2023-04-30T08:36:40.750Z,28.12
2023-04-30T08:37:40.817Z,28.43
2023-04-30T08:38:40.821Z,26.42
2023-04-30T08:39:40.888Z,28.42
2023-04-30T08:41:39.904Z,33.49
2023-04-30T08:42:40.889Z,29.17
2023-04-30T08:43:40.885Z,30.11
2023-04-30T08:44:40.862Z,27.70
2023-04-30T08:45:40.898Z,29.08
2023-04-30T08:46:40.885Z,27.20
2023-04-30T08:47:40.838Z,30.37
2023-04-30T08:48:40.815Z,27.63
2023-04-30T08:49:40.804Z,27.27
2023-04-30T08:50:40.794Z,25.82
2023-04-30T08:51:40.776Z,27.78
2023-04-30T08:52:40.769Z,27.04
2023-04-30T08:53:40.763Z,28.13
2023-04-30T08:54:40.905Z,28.95
2023-04-30T08:55:40.747Z,29.13
2023-04-30T08:56:40.718Z,27.66
2023-04-30T08:57:40.704Z,27.74
2023-04-30T08:58:40.694Z,28.14
2023-04-30T08:59:40.680Z,26.44
2023-04-30T09:00:40.728Z,30.64
2023-04-30T09:01:40.768Z,27.41
2023-04-30T09:02:40.731Z,28.07
2023-04-30T09:03:40.800Z,29.41
2023-04-30T09:04:40.602Z,28.76
2023-04-30T09:05:40.599Z,29.30
2023-04-30T09:06:40.656Z,27.06
2023-04-30T09:07:43.661Z,28.90
2023-04-30T09:08:40.544Z,29.24
2023-04-30T09:09:40.573Z,29.80
2023-04-30T09:10:40.582Z,30.22
2023-04-30T09:11:40.590Z,29.23
2023-04-30T09:12:40.566Z,29.14
2023-04-30T09:13:40.484Z,29.07
2023-04-30T09:14:40.453Z,28.54
2023-04-30T09:15:40.484Z,29.17
2023-04-30T09:16:40.440Z,26.70
2023-04-30T09:17:40.455Z,27.84
2023-04-30T09:18:40.404Z,26.69
2023-04-30T09:19:40.402Z,27.01
2023-04-30T09:20:40.370Z,29.52
2023-04-30T09:21:40.354Z,28.87
2023-04-30T09:22:40.342Z,28.49
2023-04-30T09:23:40.320Z,27.99
2023-04-30T09:24:40.307Z,28.26
2023-04-30T09:25:40.294Z,27.86
2023-04-30T09:26:40.267Z,28.62
2023-04-30T09:27:40.261Z,27.52
2023-04-30T09:28:40.227Z,27.65
2023-04-30T09:29:40.240Z,28.38
2023-04-30T09:30:40.199Z,27.46
2023-04-30T09:31:40.250Z,28.47
2023-04-30T09:32:40.183Z,28.14
2023-04-30T09:33:40.185Z,29.21
2023-04-30T09:34:40.144Z,28.43
2023-04-30T09:35:40.180Z,27.93
2023-04-30T09:36:40.164Z,27.53
2023-04-30T09:37:40.099Z,27.58
2023-04-30T09:38:39.139Z,29.55
2023-04-30T09:39:40.163Z,28.07
2023-04-30T09:40:40.199Z,28.96
2023-04-30T09:41:40.235Z,29.95
2023-04-30T09:42:40.285Z,28.16
2023-04-30T09:43:40.300Z,29.13
2023-04-30T09:44:40.358Z,26.19
2023-04-30T09:45:40.378Z,29.10
2023-04-30T09:46:40.468Z,26.89
2023-04-30T09:47:40.482Z,28.14
2023-04-30T09:48:40.520Z,28.35
2023-04-30T09:49:40.541Z,27.61
2023-04-30T09:50:43.183Z,25.89
2023-04-30T09:51:40.534Z,32.07
2023-04-30T09:52:40.521Z,29.30
2023-04-30T09:53:40.495Z,29.06
2023-04-30T09:54:40.482Z,26.82
2023-04-30T09:55:40.469Z,28.30
2023-04-30T09:56:40.503Z,25.77
2023-04-30T09:57:40.456Z,26.47
2023-04-30T09:58:40.496Z,28.92
2023-04-30T09:59:40.428Z,26.86
2023-04-30T10:00:40.445Z,28.73
2023-04-30T10:01:41.075Z,27.58
2023-04-30T10:02:40.363Z,28.16
2023-04-30T10:03:40.334Z,25.82
2023-04-30T10:04:40.319Z,28.20
2023-04-30T10:05:40.331Z,26.09
2023-04-30T10:06:41.128Z,25.67
2023-04-30T10:07:40.278Z,28.51
2023-04-30T10:08:40.263Z,28.51
2023-04-30T10:09:40.232Z,29.66
2023-04-30T10:10:40.241Z,29.61
2023-04-30T10:11:40.216Z,27.16
2023-04-30T10:12:40.211Z,28.94
2023-04-30T10:13:40.189Z,26.66
2023-04-30T10:14:40.181Z,27.13
2023-04-30T10:15:40.229Z,28.33
2023-04-30T10:16:40.257Z,27.79
2023-04-30T10:17:40.268Z,29.60
2023-04-30T10:18:40.275Z,27.92
2023-04-30T10:19:40.303Z,28.77
2023-04-30T10:20:40.360Z,28.12
2023-04-30T10:21:40.376Z,28.89
2023-04-30T10:22:40.373Z,28.97
2023-04-30T10:23:40.430Z,27.03
2023-04-30T10:24:40.433Z,26.09
2023-04-30T10:25:40.451Z,28.30
2023-04-30T10:26:40.481Z,27.97
2023-04-30T10:27:40.514Z,28.71
2023-04-30T10:28:40.529Z,27.16
2023-04-30T10:29:40.549Z,28.01
2023-04-30T10:30:40.567Z,28.20
2023-04-30T10:31:40.607Z,29.75
2023-04-30T10:32:40.663Z,28.22
2023-04-30T10:33:40.641Z,28.31
2023-04-30T10:34:40.662Z,28.35
2023-04-30T10:35:40.684Z,29.18
2023-04-30T10:36:40.720Z,28.51
2023-04-30T10:37:40.777Z,27.58
2023-04-30T10:38:40.759Z,26.90
2023-04-30T10:39:40.779Z,27.61
2023-04-30T10:40:40.830Z,27.18
2023-04-30T10:41:40.839Z,28.75
2023-04-30T10:42:40.899Z,28.58
2023-04-30T10:43:40.877Z,29.33
2023-04-30T10:44:40.906Z,28.89
2023-04-30T10:45:41.046Z,26.74
2023-04-30T10:46:41.058Z,26.76
2023-04-30T10:47:41.120Z,27.27
2023-04-30T10:48:41.068Z,27.46
2023-04-30T10:49:41.058Z,28.06
2023-04-30T10:50:42.925Z,26.66
2023-04-30T10:51:41.059Z,26.85
2023-04-30T10:52:41.078Z,27.28
2023-04-30T10:53:41.062Z,26.12
2023-04-30T10:54:41.137Z,27.39
2023-04-30T10:55:40.972Z,27.75
2023-04-30T10:56:41.102Z,26.63
2023-04-30T10:57:41.057Z,28.75
2023-04-30T10:58:40.921Z,27.58
2023-04-30T10:59:40.905Z,28.16
2023-04-30T11:00:42.029Z,27.80
2023-04-30T11:01:40.901Z,27.96
2023-04-30T11:02:40.960Z,28.52
2023-04-30T11:03:40.841Z,28.20
2023-04-30T11:04:40.872Z,28.54
2023-04-30T11:05:40.819Z,27.92
2023-04-30T11:06:41.666Z,28.27
2023-04-30T11:07:40.810Z,28.47
2023-04-30T11:08:40.778Z,29.01
2023-04-30T11:09:40.790Z,28.61
2023-04-30T11:10:40.754Z,27.11
2023-04-30T11:11:40.732Z,28.02
2023-04-30T11:12:40.714Z,26.26
2023-04-30T11:13:40.697Z,28.13
2023-04-30T11:14:40.682Z,26.90
2023-04-30T11:15:40.777Z,27.94
2023-04-30T11:16:40.771Z,25.50
2023-04-30T11:17:40.677Z,25.68
2023-04-30T11:18:40.615Z,25.58
2023-04-30T11:19:40.589Z,27.08
2023-04-30T11:20:40.577Z,27.00
2023-04-30T11:21:40.572Z,28.89
2023-04-30T11:22:40.542Z,29.51
2023-04-30T11:23:42.269Z,31.08
2023-04-30T11:24:40.511Z,33.07
2023-04-30T11:25:40.509Z,34.34
2023-04-30T11:26:40.476Z,31.00
2023-04-30T11:27:40.481Z,28.20
2023-04-30T11:28:40.454Z,30.72
2023-04-30T11:29:40.441Z,30.05
2023-04-30T11:30:40.427Z,29.11
2023-04-30T11:31:40.432Z,30.48
2023-04-30T11:32:40.511Z,31.32
2023-04-30T11:33:40.381Z,31.08
2023-04-30T11:34:40.362Z,28.25
2023-04-30T11:35:40.357Z,30.94
2023-04-30T11:36:40.337Z,29.64
2023-04-30T11:37:40.345Z,29.68
2023-04-30T11:38:40.314Z,27.85
2023-04-30T11:39:40.287Z,28.43
2023-04-30T11:40:40.275Z,29.66
2023-04-30T11:41:40.388Z,29.12
2023-04-30T11:42:40.462Z,29.88
2023-04-30T11:43:40.235Z,27.98
2023-04-30T11:44:40.224Z,28.59
2023-04-30T11:45:40.205Z,27.63
2023-04-30T11:46:40.248Z,30.26
2023-04-30T11:47:40.224Z,29.20
2023-04-30T11:48:40.156Z,30.16
2023-04-30T11:49:40.141Z,28.67
2023-04-30T11:50:41.081Z,28.44
2023-04-30T11:51:40.100Z,30.16
2023-04-30T11:52:40.081Z,27.98
2023-04-30T11:53:40.055Z,30.10
2023-04-30T11:54:40.057Z,29.71
2023-04-30T11:55:40.039Z,29.63
2023-04-30T11:56:41.340Z,29.71
2023-04-30T11:57:40.069Z,30.19
2023-04-30T11:58:40.064Z,29.59
2023-04-30T11:59:40.078Z,30.79
2023-04-30T12:00:40.090Z,30.30
2023-04-30T12:01:40.119Z,30.47
2023-04-30T12:02:40.258Z,30.58
2023-04-30T12:03:40.213Z,29.46
2023-04-30T12:04:40.218Z,31.00
2023-04-30T12:05:40.145Z,30.68
2023-04-30T12:06:40.237Z,29.95
2023-04-30T12:07:40.163Z,30.65
2023-04-30T12:08:40.178Z,29.90
2023-04-30T12:09:40.194Z,30.98
2023-04-30T12:10:40.195Z,29.60
2023-04-30T12:11:40.202Z,30.57
2023-04-30T12:12:40.217Z,30.14
2023-04-30T12:13:40.248Z,30.04
2023-04-30T12:14:40.234Z,29.62
2023-04-30T12:15:40.244Z,29.40
2023-04-30T12:16:40.313Z,30.79
2023-04-30T12:17:40.315Z,30.30
2023-04-30T12:18:40.280Z,31.02
2023-04-30T12:19:40.286Z,31.25
2023-04-30T12:20:40.327Z,32.01
2023-04-30T12:21:40.337Z,32.28
2023-04-30T12:22:40.322Z,31.38
2023-04-30T12:23:40.350Z,30.84
2023-04-30T12:24:40.360Z,30.98
2023-04-30T12:25:40.379Z,31.54
2023-04-30T12:26:40.444Z,31.49
2023-04-30T12:27:40.377Z,31.28
2023-04-30T12:28:40.389Z,31.43
2023-04-30T12:29:40.427Z,31.75
2023-04-30T12:30:40.417Z,31.69
2023-04-30T12:31:40.468Z,31.35
2023-04-30T12:32:40.440Z,31.80
2023-04-30T12:33:40.436Z,31.83
2023-04-30T12:34:40.445Z,32.21
2023-04-30T12:35:40.470Z,31.45
2023-04-30T12:36:40.474Z,31.40
2023-04-30T12:37:40.479Z,30.45
2023-04-30T12:38:40.491Z,30.71
2023-04-30T12:39:40.492Z,30.24
2023-04-30T12:40:41.075Z,32.39
2023-04-30T12:41:40.523Z,30.57
2023-04-30T12:42:40.527Z,30.85
2023-04-30T12:43:40.540Z,30.42
2023-04-30T12:44:40.546Z,30.68
2023-04-30T12:45:40.690Z,30.19
2023-04-30T12:46:40.724Z,30.99
2023-04-30T12:47:40.639Z,31.71
2023-04-30T12:48:40.583Z,31.56
2023-04-30T12:49:40.591Z,31.14
2023-04-30T12:50:40.610Z,31.56
2023-04-30T12:51:40.612Z,32.55
2023-04-30T12:52:40.618Z,30.94
2023-04-30T12:53:40.631Z,32.99